sensor_id;sensor_type;location;lat;lon;timestamp;P1;durP1;ratioP1;P2;durP2;ratioP2
7289;SDS011;3686;52.678;13.252;2022-08-21T00:02:02;7.83;;;4.27;;
7289;SDS011;3686;52.678;13.252;2022-08-21T00:04:29;5.37;;;4.53;;
7289;SDS011;3686;52.678;13.252;2022-08-21T00:06:55;5.80;;;4.43;;
7289;SDS011;3686;52.678;13.252;2022-08-21T00:09:22;5.03;;;4.50;;
7289;SDS011;3686;52.678;13.252;2022-08-21T00:11:47;4.50;;;3.90;;
7289;SDS011;3686;52.678;13.252;2022-08-21T00:14:13;5.60;;;4.00;;
7289;SDS011;3686;52.678;13.252;2022-08-21T00:16:40;4.30;;;3.90;;
7289;SDS011;3686;52.678;13.252;2022-08-21T00:19:05;6.63;;;4.80;;
7289;SDS011;3686;52.678;13.252;2022-08-21T00:21:32;6.70;;;5.00;;
7289;SDS011;3686;52.678;13.252;2022-08-21T00:23:59;6.03;;;4.57;;
7289;SDS011;3686;52.678;13.252;2022-08-21T00:26:25;5.23;;;4.73;;
7289;SDS011;3686;52.678;13.252;2022-08-21T00:28:51;5.30;;;4.80;;
7289;SDS011;3686;52.678;13.252;2022-08-21T00:31:17;4.53;;;4.07;;
7289;SDS011;3686;52.678;13.252;2022-08-21T00:33:43;5.67;;;5.00;;
7289;SDS011;3686;52.678;13.252;2022-08-21T00:36:09;6.50;;;5.30;;
7289;SDS011;3686;52.678;13.252;2022-08-21T00:38:35;8.27;;;5.17;;
7289;SDS011;3686;52.678;13.252;2022-08-21T00:41:03;6.20;;;5.43;;
7289;SDS011;3686;52.678;13.252;2022-08-21T00:43:33;7.43;;;5.80;;
7289;SDS011;3686;52.678;13.252;2022-08-21T00:46:00;7.57;;;5.83;;
7289;SDS011;3686;52.678;13.252;2022-08-21T00:48:26;6.70;;;5.30;;
7289;SDS011;3686;52.678;13.252;2022-08-21T00:50:57;6.50;;;4.70;;
7289;SDS011;3686;52.678;13.252;2022-08-21T00:53:26;9.70;;;6.20;;
7289;SDS011;3686;52.678;13.252;2022-08-21T00:55:54;8.47;;;6.00;;
7289;SDS011;3686;52.678;13.252;2022-08-21T00:58:20;5.73;;;5.13;;
7289;SDS011;3686;52.678;13.252;2022-08-21T01:00:48;7.43;;;5.63;;
7289;SDS011;3686;52.678;13.252;2022-08-21T01:03:16;9.77;;;5.43;;
7289;SDS011;3686;52.678;13.252;2022-08-21T01:05:45;6.60;;;5.63;;
7289;SDS011;3686;52.678;13.252;2022-08-21T01:08:11;6.43;;;4.67;;
7289;SDS011;3686;52.678;13.252;2022-08-21T01:10:38;7.10;;;5.53;;
7289;SDS011;3686;52.678;13.252;2022-08-21T01:13:05;5.13;;;4.60;;
7289;SDS011;3686;52.678;13.252;2022-08-21T01:15:33;7.70;;;5.57;;
7289;SDS011;3686;52.678;13.252;2022-08-21T01:18:01;6.87;;;4.97;;
7289;SDS011;3686;52.678;13.252;2022-08-21T01:20:29;5.20;;;4.70;;
7289;SDS011;3686;52.678;13.252;2022-08-21T01:22:55;7.50;;;5.40;;
7289;SDS011;3686;52.678;13.252;2022-08-21T01:25:21;12.90;;;5.10;;
7289;SDS011;3686;52.678;13.252;2022-08-21T01:27:46;7.27;;;4.30;;
7289;SDS011;3686;52.678;13.252;2022-08-21T01:30:16;5.87;;;4.20;;
7289;SDS011;3686;52.678;13.252;2022-08-21T01:32:45;5.60;;;4.07;;
7289;SDS011;3686;52.678;13.252;2022-08-21T01:35:12;6.00;;;4.83;;
7289;SDS011;3686;52.678;13.252;2022-08-21T01:37:39;7.77;;;4.30;;
7289;SDS011;3686;52.678;13.252;2022-08-21T01:40:06;5.27;;;4.30;;
7289;SDS011;3686;52.678;13.252;2022-08-21T01:42:32;7.43;;;4.50;;
7289;SDS011;3686;52.678;13.252;2022-08-21T01:44:58;7.60;;;4.63;;
7289;SDS011;3686;52.678;13.252;2022-08-21T01:47:24;4.40;;;4.00;;
7289;SDS011;3686;52.678;13.252;2022-08-21T01:49:50;4.83;;;4.10;;
7289;SDS011;3686;52.678;13.252;2022-08-21T01:52:16;4.57;;;4.17;;
7289;SDS011;3686;52.678;13.252;2022-08-21T01:54:42;6.33;;;4.90;;
7289;SDS011;3686;52.678;13.252;2022-08-21T01:57:08;6.10;;;4.47;;
7289;SDS011;3686;52.678;13.252;2022-08-21T01:59:34;5.17;;;4.13;;
7289;SDS011;3686;52.678;13.252;2022-08-21T02:02:00;5.57;;;4.33;;
7289;SDS011;3686;52.678;13.252;2022-08-21T02:04:26;11.63;;;4.27;;
7289;SDS011;3686;52.678;13.252;2022-08-21T02:06:52;5.23;;;4.73;;
7289;SDS011;3686;52.678;13.252;2022-08-21T02:12:53;6.30;;;4.27;;
7289;SDS011;3686;52.678;13.252;2022-08-21T02:15:20;4.77;;;3.30;;
7289;SDS011;3686;52.678;13.252;2022-08-21T02:17:48;6.20;;;4.53;;
7289;SDS011;3686;52.678;13.252;2022-08-21T02:20:18;11.63;;;4.30;;
7289;SDS011;3686;52.678;13.252;2022-08-21T02:22:53;5.60;;;4.30;;
7289;SDS011;3686;52.678;13.252;2022-08-21T02:25:20;3.93;;;3.53;;
7289;SDS011;3686;52.678;13.252;2022-08-21T02:27:48;5.80;;;4.23;;
7289;SDS011;3686;52.678;13.252;2022-08-21T02:30:17;4.77;;;4.00;;
7289;SDS011;3686;52.678;13.252;2022-08-21T02:32:51;8.50;;;3.90;;
7289;SDS011;3686;52.678;13.252;2022-08-21T02:35:17;5.67;;;3.60;;
7289;SDS011;3686;52.678;13.252;2022-08-21T02:37:44;4.00;;;3.60;;
7289;SDS011;3686;52.678;13.252;2022-08-21T02:40:13;4.07;;;3.67;;
7289;SDS011;3686;52.678;13.252;2022-08-21T02:42:39;7.93;;;4.43;;
7289;SDS011;3686;52.678;13.252;2022-08-21T02:45:05;3.90;;;3.50;;
7289;SDS011;3686;52.678;13.252;2022-08-21T02:47:32;4.80;;;3.53;;
7289;SDS011;3686;52.678;13.252;2022-08-21T02:49:58;5.70;;;3.60;;
7289;SDS011;3686;52.678;13.252;2022-08-21T02:52:23;4.13;;;3.73;;
7289;SDS011;3686;52.678;13.252;2022-08-21T02:54:49;4.37;;;3.40;;
7289;SDS011;3686;52.678;13.252;2022-08-21T02:57:15;3.10;;;2.90;;
7289;SDS011;3686;52.678;13.252;2022-08-21T02:59:41;4.33;;;3.77;;
7289;SDS011;3686;52.678;13.252;2022-08-21T03:02:07;4.37;;;3.40;;
7289;SDS011;3686;52.678;13.252;2022-08-21T03:04:32;12.67;;;3.37;;
7289;SDS011;3686;52.678;13.252;2022-08-21T03:06:58;4.23;;;3.13;;
7289;SDS011;3686;52.678;13.252;2022-08-21T03:09:25;5.00;;;3.17;;
7289;SDS011;3686;52.678;13.252;2022-08-21T03:11:51;4.93;;;3.20;;
7289;SDS011;3686;52.678;13.252;2022-08-21T03:14:17;8.77;;;3.77;;
7289;SDS011;3686;52.678;13.252;2022-08-21T03:16:43;4.60;;;4.03;;
7289;SDS011;3686;52.678;13.252;2022-08-21T03:19:09;5.10;;;3.23;;
7289;SDS011;3686;52.678;13.252;2022-08-21T03:21:35;5.40;;;3.40;;
7289;SDS011;3686;52.678;13.252;2022-08-21T03:24:01;8.20;;;3.20;;
7289;SDS011;3686;52.678;13.252;2022-08-21T03:26:26;6.73;;;3.50;;
7289;SDS011;3686;52.678;13.252;2022-08-21T03:28:52;6.37;;;3.70;;
7289;SDS011;3686;52.678;13.252;2022-08-21T03:31:18;4.37;;;3.10;;
7289;SDS011;3686;52.678;13.252;2022-08-21T03:33:43;3.73;;;3.13;;
7289;SDS011;3686;52.678;13.252;2022-08-21T03:36:09;3.50;;;3.10;;
7289;SDS011;3686;52.678;13.252;2022-08-21T03:38:36;3.23;;;2.70;;
7289;SDS011;3686;52.678;13.252;2022-08-21T03:41:03;6.53;;;3.30;;
7289;SDS011;3686;52.678;13.252;2022-08-21T03:43:29;4.07;;;3.27;;
7289;SDS011;3686;52.678;13.252;2022-08-21T03:45:56;3.73;;;2.40;;
7289;SDS011;3686;52.678;13.252;2022-08-21T03:48:22;3.20;;;2.90;;
7289;SDS011;3686;52.678;13.252;2022-08-21T03:50:48;4.93;;;2.67;;
7289;SDS011;3686;52.678;13.252;2022-08-21T03:53:17;3.90;;;3.17;;
7289;SDS011;3686;52.678;13.252;2022-08-21T03:55:43;6.20;;;2.80;;
7289;SDS011;3686;52.678;13.252;2022-08-21T03:58:11;3.70;;;3.30;;
7289;SDS011;3686;52.678;13.252;2022-08-21T04:00:36;3.43;;;3.13;;
7289;SDS011;3686;52.678;13.252;2022-08-21T04:03:02;9.03;;;3.40;;
7289;SDS011;3686;52.678;13.252;2022-08-21T04:05:28;3.77;;;3.20;;
7289;SDS011;3686;52.678;13.252;2022-08-21T04:07:58;7.80;;;3.00;;
7289;SDS011;3686;52.678;13.252;2022-08-21T04:10:27;2.77;;;2.53;;
7289;SDS011;3686;52.678;13.252;2022-08-21T04:12:55;5.33;;;3.20;;
7289;SDS011;3686;52.678;13.252;2022-08-21T04:15:23;4.53;;;3.17;;
7289;SDS011;3686;52.678;13.252;2022-08-21T04:17:50;3.20;;;2.67;;
7289;SDS011;3686;52.678;13.252;2022-08-21T04:20:16;6.57;;;3.07;;
7289;SDS011;3686;52.678;13.252;2022-08-21T04:22:43;6.00;;;2.60;;
7289;SDS011;3686;52.678;13.252;2022-08-21T04:25:09;4.13;;;3.30;;
7289;SDS011;3686;52.678;13.252;2022-08-21T04:27:36;2.93;;;2.73;;
7289;SDS011;3686;52.678;13.252;2022-08-21T04:30:03;3.30;;;3.00;;
7289;SDS011;3686;52.678;13.252;2022-08-21T04:32:29;2.50;;;2.30;;
7289;SDS011;3686;52.678;13.252;2022-08-21T04:34:59;7.70;;;2.70;;
7289;SDS011;3686;52.678;13.252;2022-08-21T04:37:29;6.43;;;2.80;;
7289;SDS011;3686;52.678;13.252;2022-08-21T04:39:55;3.53;;;2.63;;
7289;SDS011;3686;52.678;13.252;2022-08-21T04:42:23;5.80;;;3.33;;
7289;SDS011;3686;52.678;13.252;2022-08-21T04:44:49;3.23;;;2.77;;
7289;SDS011;3686;52.678;13.252;2022-08-21T04:47:15;5.13;;;2.30;;
7289;SDS011;3686;52.678;13.252;2022-08-21T04:49:41;12.80;;;2.90;;
7289;SDS011;3686;52.678;13.252;2022-08-21T04:52:08;2.07;;;1.97;;
7289;SDS011;3686;52.678;13.252;2022-08-21T04:54:34;4.30;;;2.50;;
7289;SDS011;3686;52.678;13.252;2022-08-21T04:57:02;2.63;;;2.43;;
7289;SDS011;3686;52.678;13.252;2022-08-21T04:59:41;5.93;;;2.40;;
7289;SDS011;3686;52.678;13.252;2022-08-21T05:02:13;4.47;;;3.37;;
7289;SDS011;3686;52.678;13.252;2022-08-21T05:04:42;3.47;;;2.30;;
7289;SDS011;3686;52.678;13.252;2022-08-21T05:07:12;2.60;;;2.20;;
7289;SDS011;3686;52.678;13.252;2022-08-21T05:09:42;6.03;;;2.63;;
7289;SDS011;3686;52.678;13.252;2022-08-21T05:12:08;4.40;;;2.23;;
7289;SDS011;3686;52.678;13.252;2022-08-21T05:14:35;3.30;;;2.40;;
7289;SDS011;3686;52.678;13.252;2022-08-21T05:17:01;3.10;;;2.77;;
7289;SDS011;3686;52.678;13.252;2022-08-21T05:19:26;2.90;;;2.20;;
7289;SDS011;3686;52.678;13.252;2022-08-21T05:21:52;5.50;;;2.40;;
7289;SDS011;3686;52.678;13.252;2022-08-21T05:24:18;5.37;;;2.13;;
7289;SDS011;3686;52.678;13.252;2022-08-21T05:26:44;3.20;;;2.37;;
7289;SDS011;3686;52.678;13.252;2022-08-21T05:29:11;2.77;;;2.57;;
7289;SDS011;3686;52.678;13.252;2022-08-21T05:31:38;2.83;;;2.10;;
7289;SDS011;3686;52.678;13.252;2022-08-21T05:34:04;2.57;;;2.33;;
7289;SDS011;3686;52.678;13.252;2022-08-21T05:36:29;7.20;;;2.90;;
7289;SDS011;3686;52.678;13.252;2022-08-21T05:38:55;3.17;;;2.33;;
7289;SDS011;3686;52.678;13.252;2022-08-21T05:41:21;6.70;;;2.10;;
7289;SDS011;3686;52.678;13.252;2022-08-21T05:43:46;2.83;;;2.20;;
7289;SDS011;3686;52.678;13.252;2022-08-21T05:46:12;2.97;;;1.83;;
7289;SDS011;3686;52.678;13.252;2022-08-21T05:48:38;3.53;;;1.87;;
7289;SDS011;3686;52.678;13.252;2022-08-21T05:51:08;1.63;;;1.53;;
7289;SDS011;3686;52.678;13.252;2022-08-21T05:53:36;5.93;;;2.40;;
7289;SDS011;3686;52.678;13.252;2022-08-21T05:56:03;4.40;;;2.83;;
7289;SDS011;3686;52.678;13.252;2022-08-21T05:58:30;8.50;;;2.40;;
7289;SDS011;3686;52.678;13.252;2022-08-21T06:00:57;5.33;;;2.13;;
7289;SDS011;3686;52.678;13.252;2022-08-21T06:03:34;3.53;;;2.43;;
7289;SDS011;3686;52.678;13.252;2022-08-21T06:06:01;5.03;;;2.90;;
7289;SDS011;3686;52.678;13.252;2022-08-21T06:08:27;3.80;;;2.10;;
7289;SDS011;3686;52.678;13.252;2022-08-21T06:10:54;8.40;;;2.53;;
7289;SDS011;3686;52.678;13.252;2022-08-21T06:13:21;3.20;;;2.50;;
7289;SDS011;3686;52.678;13.252;2022-08-21T06:15:48;3.67;;;2.50;;
7289;SDS011;3686;52.678;13.252;2022-08-21T06:18:15;4.67;;;2.70;;
7289;SDS011;3686;52.678;13.252;2022-08-21T06:20:41;9.50;;;2.60;;
7289;SDS011;3686;52.678;13.252;2022-08-21T06:23:07;3.63;;;2.50;;
7289;SDS011;3686;52.678;13.252;2022-08-21T06:25:33;4.83;;;2.30;;
7289;SDS011;3686;52.678;13.252;2022-08-21T06:28:00;3.90;;;3.07;;
7289;SDS011;3686;52.678;13.252;2022-08-21T06:30:28;6.40;;;2.60;;
7289;SDS011;3686;52.678;13.252;2022-08-21T06:32:53;3.80;;;2.50;;
7289;SDS011;3686;52.678;13.252;2022-08-21T06:35:19;5.43;;;2.47;;
7289;SDS011;3686;52.678;13.252;2022-08-21T06:37:45;4.53;;;2.10;;
7289;SDS011;3686;52.678;13.252;2022-08-21T06:40:10;3.83;;;2.80;;
7289;SDS011;3686;52.678;13.252;2022-08-21T06:42:37;5.00;;;2.73;;
7289;SDS011;3686;52.678;13.252;2022-08-21T06:45:03;4.40;;;2.23;;
7289;SDS011;3686;52.678;13.252;2022-08-21T06:47:29;2.90;;;1.80;;
7289;SDS011;3686;52.678;13.252;2022-08-21T06:49:54;8.30;;;2.07;;
7289;SDS011;3686;52.678;13.252;2022-08-21T06:52:20;4.20;;;2.53;;
7289;SDS011;3686;52.678;13.252;2022-08-21T06:54:46;2.87;;;2.60;;
7289;SDS011;3686;52.678;13.252;2022-08-21T06:57:11;5.50;;;2.40;;
7289;SDS011;3686;52.678;13.252;2022-08-21T06:59:37;10.17;;;3.00;;
7289;SDS011;3686;52.678;13.252;2022-08-21T07:02:03;5.60;;;2.37;;
7289;SDS011;3686;52.678;13.252;2022-08-21T07:04:29;2.73;;;1.97;;
7289;SDS011;3686;52.678;13.252;2022-08-21T07:06:55;4.97;;;2.00;;
7289;SDS011;3686;52.678;13.252;2022-08-21T07:09:20;2.37;;;2.17;;
7289;SDS011;3686;52.678;13.252;2022-08-21T07:11:47;4.37;;;2.17;;
7289;SDS011;3686;52.678;13.252;2022-08-21T07:14:16;2.60;;;1.93;;
7289;SDS011;3686;52.678;13.252;2022-08-21T07:16:41;4.17;;;1.90;;
7289;SDS011;3686;52.678;13.252;2022-08-21T07:19:07;6.07;;;1.93;;
7289;SDS011;3686;52.678;13.252;2022-08-21T07:21:33;4.37;;;2.07;;
7289;SDS011;3686;52.678;13.252;2022-08-21T07:23:58;3.53;;;2.30;;
7289;SDS011;3686;52.678;13.252;2022-08-21T07:26:24;1.80;;;1.70;;
7289;SDS011;3686;52.678;13.252;2022-08-21T07:28:50;2.70;;;1.93;;
7289;SDS011;3686;52.678;13.252;2022-08-21T07:31:17;3.70;;;1.90;;
7289;SDS011;3686;52.678;13.252;2022-08-21T07:33:44;1.97;;;1.43;;
7289;SDS011;3686;52.678;13.252;2022-08-21T07:36:10;2.07;;;1.83;;
7289;SDS011;3686;52.678;13.252;2022-08-21T07:38:36;2.40;;;1.40;;
7289;SDS011;3686;52.678;13.252;2022-08-21T07:41:04;3.43;;;1.40;;
7289;SDS011;3686;52.678;13.252;2022-08-21T07:43:37;1.30;;;1.20;;
7289;SDS011;3686;52.678;13.252;2022-08-21T07:46:03;4.40;;;1.23;;
7289;SDS011;3686;52.678;13.252;2022-08-21T07:48:28;3.53;;;1.30;;
7289;SDS011;3686;52.678;13.252;2022-08-21T07:50:54;2.20;;;1.73;;
7289;SDS011;3686;52.678;13.252;2022-08-21T07:53:20;3.73;;;1.73;;
7289;SDS011;3686;52.678;13.252;2022-08-21T07:55:46;1.80;;;1.23;;
7289;SDS011;3686;52.678;13.252;2022-08-21T07:58:12;3.80;;;1.40;;
7289;SDS011;3686;52.678;13.252;2022-08-21T08:00:38;2.50;;;1.10;;
7289;SDS011;3686;52.678;13.252;2022-08-21T08:03:04;3.23;;;1.50;;
7289;SDS011;3686;52.678;13.252;2022-08-21T08:05:31;2.73;;;1.20;;
7289;SDS011;3686;52.678;13.252;2022-08-21T08:07:57;2.20;;;1.27;;
7289;SDS011;3686;52.678;13.252;2022-08-21T08:10:23;2.50;;;1.13;;
7289;SDS011;3686;52.678;13.252;2022-08-21T08:12:51;1.27;;;0.93;;
7289;SDS011;3686;52.678;13.252;2022-08-21T08:15:20;3.10;;;1.13;;
7289;SDS011;3686;52.678;13.252;2022-08-21T08:17:48;6.53;;;1.90;;
7289;SDS011;3686;52.678;13.252;2022-08-21T08:20:15;1.90;;;1.30;;
7289;SDS011;3686;52.678;13.252;2022-08-21T08:22:43;4.70;;;1.20;;
7289;SDS011;3686;52.678;13.252;2022-08-21T08:25:10;2.60;;;1.27;;
7289;SDS011;3686;52.678;13.252;2022-08-21T08:27:37;11.27;;;1.00;;
7289;SDS011;3686;52.678;13.252;2022-08-21T08:30:04;2.13;;;0.93;;
7289;SDS011;3686;52.678;13.252;2022-08-21T08:32:32;2.20;;;1.10;;
7289;SDS011;3686;52.678;13.252;2022-08-21T08:34:58;2.33;;;1.17;;
7289;SDS011;3686;52.678;13.252;2022-08-21T08:37:24;3.77;;;1.23;;
7289;SDS011;3686;52.678;13.252;2022-08-21T08:39:49;2.07;;;1.10;;
7289;SDS011;3686;52.678;13.252;2022-08-21T08:42:17;1.60;;;1.00;;
7289;SDS011;3686;52.678;13.252;2022-08-21T08:45:02;4.47;;;1.47;;
7289;SDS011;3686;52.678;13.252;2022-08-21T08:47:32;2.60;;;1.17;;
7289;SDS011;3686;52.678;13.252;2022-08-21T08:53:00;1.87;;;1.30;;
7289;SDS011;3686;52.678;13.252;2022-08-21T08:55:39;3.93;;;1.33;;
7289;SDS011;3686;52.678;13.252;2022-08-21T08:58:08;4.73;;;1.33;;
7289;SDS011;3686;52.678;13.252;2022-08-21T09:00:39;2.07;;;1.03;;
7289;SDS011;3686;52.678;13.252;2022-08-21T09:03:05;1.20;;;1.07;;
7289;SDS011;3686;52.678;13.252;2022-08-21T09:05:45;1.10;;;1.00;;
7289;SDS011;3686;52.678;13.252;2022-08-21T09:27:37;1.80;;;1.00;;
7289;SDS011;3686;52.678;13.252;2022-08-21T09:30:05;2.17;;;1.30;;
7289;SDS011;3686;52.678;13.252;2022-08-21T09:32:32;3.20;;;1.50;;
7289;SDS011;3686;52.678;13.252;2022-08-21T09:37:48;1.73;;;1.10;;
7289;SDS011;3686;52.678;13.252;2022-08-21T09:40:27;4.40;;;0.87;;
7289;SDS011;3686;52.678;13.252;2022-08-21T09:45:47;6.43;;;1.10;;
7289;SDS011;3686;52.678;13.252;2022-08-21T09:48:22;5.77;;;1.43;;
7289;SDS011;3686;52.678;13.252;2022-08-21T09:50:50;4.67;;;1.20;;
7289;SDS011;3686;52.678;13.252;2022-08-21T09:53:22;1.80;;;0.90;;
7289;SDS011;3686;52.678;13.252;2022-08-21T09:55:52;6.33;;;1.03;;
7289;SDS011;3686;52.678;13.252;2022-08-21T09:58:42;2.80;;;1.00;;
7289;SDS011;3686;52.678;13.252;2022-08-21T10:01:18;2.30;;;1.00;;
7289;SDS011;3686;52.678;13.252;2022-08-21T10:03:49;3.23;;;1.23;;
7289;SDS011;3686;52.678;13.252;2022-08-21T10:06:30;1.47;;;0.80;;
7289;SDS011;3686;52.678;13.252;2022-08-21T10:09:16;2.03;;;1.10;;
7289;SDS011;3686;52.678;13.252;2022-08-21T10:11:52;1.30;;;0.90;;
7289;SDS011;3686;52.678;13.252;2022-08-21T10:14:25;3.77;;;1.10;;
7289;SDS011;3686;52.678;13.252;2022-08-21T10:17:01;0.80;;;0.63;;
7289;SDS011;3686;52.678;13.252;2022-08-21T10:19:42;2.30;;;0.83;;
7289;SDS011;3686;52.678;13.252;2022-08-21T10:30:37;1.80;;;1.00;;
7289;SDS011;3686;52.678;13.252;2022-08-21T10:36:40;7.60;;;1.20;;
7289;SDS011;3686;52.678;13.252;2022-08-21T10:38:53;2.20;;;0.93;;
7289;SDS011;3686;52.678;13.252;2022-08-21T10:46:54;1.10;;;0.80;;
7289;SDS011;3686;52.678;13.252;2022-08-21T10:52:22;0.97;;;0.80;;
7289;SDS011;3686;52.678;13.252;2022-08-21T10:57:51;0.87;;;0.70;;
7289;SDS011;3686;52.678;13.252;2022-08-21T11:00:33;2.10;;;0.63;;
7289;SDS011;3686;52.678;13.252;2022-08-21T11:03:44;0.90;;;0.80;;
7289;SDS011;3686;52.678;13.252;2022-08-21T11:08:49;4.23;;;0.77;;
7289;SDS011;3686;52.678;13.252;2022-08-21T11:17:12;1.30;;;0.67;;
7289;SDS011;3686;52.678;13.252;2022-08-21T11:20:16;1.60;;;0.77;;
7289;SDS011;3686;52.678;13.252;2022-08-21T11:22:41;1.33;;;0.73;;
7289;SDS011;3686;52.678;13.252;2022-08-21T11:25:34;1.37;;;0.60;;
7289;SDS011;3686;52.678;13.252;2022-08-21T11:28:08;1.10;;;0.70;;
7289;SDS011;3686;52.678;13.252;2022-08-21T11:36:01;0.70;;;0.60;;
7289;SDS011;3686;52.678;13.252;2022-08-21T11:38:41;0.80;;;0.50;;
7289;SDS011;3686;52.678;13.252;2022-08-21T11:44:19;0.63;;;0.60;;
7289;SDS011;3686;52.678;13.252;2022-08-21T11:47:03;0.90;;;0.70;;
7289;SDS011;3686;52.678;13.252;2022-08-21T11:49:53;2.20;;;0.70;;
7289;SDS011;3686;52.678;13.252;2022-08-21T11:52:34;0.60;;;0.50;;
7289;SDS011;3686;52.678;13.252;2022-08-21T11:57:55;1.20;;;1.03;;
7289;SDS011;3686;52.678;13.252;2022-08-21T12:00:33;0.70;;;0.50;;
7289;SDS011;3686;52.678;13.252;2022-08-21T12:03:14;1.27;;;0.70;;
7289;SDS011;3686;52.678;13.252;2022-08-21T12:05:53;1.67;;;1.47;;
7289;SDS011;3686;52.678;13.252;2022-08-21T12:08:35;1.33;;;1.10;;
7289;SDS011;3686;52.678;13.252;2022-08-21T12:11:02;1.40;;;0.70;;
7289;SDS011;3686;52.678;13.252;2022-08-21T12:13:38;1.53;;;0.73;;
7289;SDS011;3686;52.678;13.252;2022-08-21T12:18:35;2.10;;;1.00;;
7289;SDS011;3686;52.678;13.252;2022-08-21T12:23:45;2.10;;;0.83;;
7289;SDS011;3686;52.678;13.252;2022-08-21T12:26:17;2.13;;;0.90;;
7289;SDS011;3686;52.678;13.252;2022-08-21T12:28:49;1.83;;;0.90;;
7289;SDS011;3686;52.678;13.252;2022-08-21T12:31:19;0.97;;;0.77;;
7289;SDS011;3686;52.678;13.252;2022-08-21T12:33:59;1.27;;;0.80;;
7289;SDS011;3686;52.678;13.252;2022-08-21T12:36:41;1.43;;;0.80;;
7289;SDS011;3686;52.678;13.252;2022-08-21T12:39:14;1.13;;;0.97;;
7289;SDS011;3686;52.678;13.252;2022-08-21T12:44:53;2.00;;;1.10;;
7289;SDS011;3686;52.678;13.252;2022-08-21T12:47:31;2.67;;;0.90;;
7289;SDS011;3686;52.678;13.252;2022-08-21T12:50:03;3.07;;;0.80;;
7289;SDS011;3686;52.678;13.252;2022-08-21T12:52:39;2.13;;;1.00;;
7289;SDS011;3686;52.678;13.252;2022-08-21T12:55:14;2.10;;;1.17;;
7289;SDS011;3686;52.678;13.252;2022-08-21T12:57:50;3.10;;;1.40;;
7289;SDS011;3686;52.678;13.252;2022-08-21T13:00:19;2.53;;;1.33;;
7289;SDS011;3686;52.678;13.252;2022-08-21T13:02:48;2.83;;;0.83;;
7289;SDS011;3686;52.678;13.252;2022-08-21T13:05:36;1.37;;;1.27;;
7289;SDS011;3686;52.678;13.252;2022-08-21T13:08:05;2.40;;;0.83;;
7289;SDS011;3686;52.678;13.252;2022-08-21T13:10:34;2.20;;;1.30;;
7289;SDS011;3686;52.678;13.252;2022-08-21T13:13:02;5.73;;;1.20;;
7289;SDS011;3686;52.678;13.252;2022-08-21T13:15:34;5.80;;;0.97;;
7289;SDS011;3686;52.678;13.252;2022-08-21T13:18:02;1.40;;;1.30;;
7289;SDS011;3686;52.678;13.252;2022-08-21T13:20:35;2.60;;;0.93;;
7289;SDS011;3686;52.678;13.252;2022-08-21T13:23:03;1.40;;;1.30;;
7289;SDS011;3686;52.678;13.252;2022-08-21T13:25:36;1.67;;;1.17;;
7289;SDS011;3686;52.678;13.252;2022-08-21T13:28:07;1.17;;;1.07;;
7289;SDS011;3686;52.678;13.252;2022-08-21T13:30:39;1.20;;;0.70;;
7289;SDS011;3686;52.678;13.252;2022-08-21T13:33:09;2.57;;;1.20;;
7289;SDS011;3686;52.678;13.252;2022-08-21T13:35:48;2.40;;;1.27;;
7289;SDS011;3686;52.678;13.252;2022-08-21T13:38:15;3.53;;;1.50;;
7289;SDS011;3686;52.678;13.252;2022-08-21T13:40:45;5.07;;;1.20;;
7289;SDS011;3686;52.678;13.252;2022-08-21T13:43:15;4.20;;;1.60;;
7289;SDS011;3686;52.678;13.252;2022-08-21T13:45:46;1.47;;;0.93;;
7289;SDS011;3686;52.678;13.252;2022-08-21T13:48:14;4.03;;;1.50;;
7289;SDS011;3686;52.678;13.252;2022-08-21T13:50:41;4.43;;;1.50;;
7289;SDS011;3686;52.678;13.252;2022-08-21T13:53:18;2.20;;;1.23;;
7289;SDS011;3686;52.678;13.252;2022-08-21T13:56:04;1.43;;;1.33;;
7289;SDS011;3686;52.678;13.252;2022-08-21T14:01:05;8.37;;;1.60;;
7289;SDS011;3686;52.678;13.252;2022-08-21T14:03:47;2.00;;;1.23;;
7289;SDS011;3686;52.678;13.252;2022-08-21T14:06:24;2.90;;;1.07;;
7289;SDS011;3686;52.678;13.252;2022-08-21T14:08:59;2.30;;;1.63;;
7289;SDS011;3686;52.678;13.252;2022-08-21T14:11:32;3.33;;;1.20;;
7289;SDS011;3686;52.678;13.252;2022-08-21T14:14:03;2.67;;;1.23;;
7289;SDS011;3686;52.678;13.252;2022-08-21T14:16:43;1.30;;;1.17;;
7289;SDS011;3686;52.678;13.252;2022-08-21T14:19:17;2.20;;;1.17;;
7289;SDS011;3686;52.678;13.252;2022-08-21T14:21:48;2.17;;;1.07;;
7289;SDS011;3686;52.678;13.252;2022-08-21T14:26:48;4.53;;;1.47;;
7289;SDS011;3686;52.678;13.252;2022-08-21T14:29:21;3.37;;;1.30;;
7289;SDS011;3686;52.678;13.252;2022-08-21T14:31:50;3.57;;;1.00;;
7289;SDS011;3686;52.678;13.252;2022-08-21T14:34:17;2.67;;;1.70;;
7289;SDS011;3686;52.678;13.252;2022-08-21T14:36:43;2.60;;;1.00;;
7289;SDS011;3686;52.678;13.252;2022-08-21T14:39:09;1.33;;;1.23;;
7289;SDS011;3686;52.678;13.252;2022-08-21T14:41:35;1.33;;;1.10;;
7289;SDS011;3686;52.678;13.252;2022-08-21T14:44:02;1.73;;;0.90;;
7289;SDS011;3686;52.678;13.252;2022-08-21T14:46:29;3.47;;;1.50;;
7289;SDS011;3686;52.678;13.252;2022-08-21T14:48:56;5.70;;;1.30;;
7289;SDS011;3686;52.678;13.252;2022-08-21T14:51:22;1.33;;;1.20;;
7289;SDS011;3686;52.678;13.252;2022-08-21T14:53:48;1.00;;;1.00;;
7289;SDS011;3686;52.678;13.252;2022-08-21T14:56:14;1.93;;;1.40;;
7289;SDS011;3686;52.678;13.252;2022-08-21T14:58:42;3.80;;;1.63;;
7289;SDS011;3686;52.678;13.252;2022-08-21T15:01:10;2.30;;;1.30;;
7289;SDS011;3686;52.678;13.252;2022-08-21T15:03:37;4.27;;;1.50;;
7289;SDS011;3686;52.678;13.252;2022-08-21T15:06:04;3.33;;;1.70;;
7289;SDS011;3686;52.678;13.252;2022-08-21T15:08:31;2.73;;;1.27;;
7289;SDS011;3686;52.678;13.252;2022-08-21T15:10:57;3.00;;;1.33;;
7289;SDS011;3686;52.678;13.252;2022-08-21T15:13:24;1.60;;;1.47;;
7289;SDS011;3686;52.678;13.252;2022-08-21T15:15:51;1.80;;;1.20;;
7289;SDS011;3686;52.678;13.252;2022-08-21T15:18:21;3.30;;;1.30;;
7289;SDS011;3686;52.678;13.252;2022-08-21T15:20:49;2.30;;;1.60;;
7289;SDS011;3686;52.678;13.252;2022-08-21T15:23:15;2.23;;;1.67;;
7289;SDS011;3686;52.678;13.252;2022-08-21T15:25:42;3.03;;;1.53;;
7289;SDS011;3686;52.678;13.252;2022-08-21T15:28:09;4.80;;;1.57;;
7289;SDS011;3686;52.678;13.252;2022-08-21T15:30:36;2.33;;;1.50;;
7289;SDS011;3686;52.678;13.252;2022-08-21T15:33:03;2.97;;;1.57;;
7289;SDS011;3686;52.678;13.252;2022-08-21T15:35:30;1.40;;;1.30;;
7289;SDS011;3686;52.678;13.252;2022-08-21T15:37:55;6.20;;;1.87;;
7289;SDS011;3686;52.678;13.252;2022-08-21T15:40:22;8.83;;;1.80;;
7289;SDS011;3686;52.678;13.252;2022-08-21T15:42:48;3.43;;;1.63;;
7289;SDS011;3686;52.678;13.252;2022-08-21T15:45:18;4.20;;;1.77;;
7289;SDS011;3686;52.678;13.252;2022-08-21T15:47:44;3.80;;;1.67;;
7289;SDS011;3686;52.678;13.252;2022-08-21T15:50:11;2.30;;;1.83;;
7289;SDS011;3686;52.678;13.252;2022-08-21T15:52:38;3.23;;;1.50;;
7289;SDS011;3686;52.678;13.252;2022-08-21T15:55:04;2.17;;;2.07;;
7289;SDS011;3686;52.678;13.252;2022-08-21T15:57:31;2.70;;;2.03;;
7289;SDS011;3686;52.678;13.252;2022-08-21T15:59:57;2.97;;;1.73;;
7289;SDS011;3686;52.678;13.252;2022-08-21T16:02:33;1.50;;;1.40;;
7289;SDS011;3686;52.678;13.252;2022-08-21T16:04:59;2.83;;;1.80;;
7289;SDS011;3686;52.678;13.252;2022-08-21T16:07:25;2.33;;;2.10;;
7289;SDS011;3686;52.678;13.252;2022-08-21T16:09:50;3.00;;;1.97;;
7289;SDS011;3686;52.678;13.252;2022-08-21T16:12:21;4.53;;;1.93;;
7289;SDS011;3686;52.678;13.252;2022-08-21T16:14:50;2.90;;;1.90;;
7289;SDS011;3686;52.678;13.252;2022-08-21T16:17:17;1.73;;;1.63;;
7289;SDS011;3686;52.678;13.252;2022-08-21T16:19:43;2.47;;;1.70;;
7289;SDS011;3686;52.678;13.252;2022-08-21T16:22:09;1.93;;;1.47;;
7289;SDS011;3686;52.678;13.252;2022-08-21T16:24:34;2.80;;;1.83;;
7289;SDS011;3686;52.678;13.252;2022-08-21T16:27:00;5.10;;;1.50;;
7289;SDS011;3686;52.678;13.252;2022-08-21T16:29:28;3.60;;;1.63;;
7289;SDS011;3686;52.678;13.252;2022-08-21T16:31:58;1.53;;;1.43;;
7289;SDS011;3686;52.678;13.252;2022-08-21T16:34:24;3.33;;;1.30;;
7289;SDS011;3686;52.678;13.252;2022-08-21T16:36:51;2.50;;;1.70;;
7289;SDS011;3686;52.678;13.252;2022-08-21T16:39:17;4.63;;;2.20;;